Time;durP1;ratioP1;P1;durP2;ratioP2;P2;SDS_P1;SDS_P2;PMS_P1;PMS_P2;Temp;Humidity;BMP_temperature;BMP_pressure;BME280_temperature;BME280_humidity;BME280_pressure;Samples;Min_cycle;Max_cycle;Signal;HPM_P1;HPM_P2
2022/03/21 00:01:10;;;;;;;100.43;46.53;;;;;;;1.93;100.00;102912.38;5013815;28;20029;-47
2022/03/21 00:03:35;;;;;;;99.80;47.83;;;;;;;1.95;99.92;102921.09;5009176;28;20999;-47
2022/03/21 00:06:01;;;;;;;98.10;47.95;;;;;;;1.89;98.54;102918.69;5005091;28;20079;-47
2022/03/21 00:08:26;;;;;;;101.30;49.00;;;;;;;1.83;99.63;102923.25;5008114;28;20147;-52
2022/03/21 00:10:54;;;;;;;99.38;48.40;;;;;;;1.80;99.84;102925.13;5012019;28;20162;-50
2022/03/21 00:13:20;;;;;;;99.93;48.90;;;;;;;1.73;100.00;102927.13;5013184;28;20079;-50
2022/03/21 00:15:49;;;;;;;103.13;49.40;;;;;;;1.69;100.00;102936.03;5011976;28;20099;-50
2022/03/21 00:18:15;;;;;;;105.50;48.13;;;;;;;1.69;100.00;102938.66;5012920;28;20061;-52
2022/03/21 00:20:45;;;;;;;96.97;45.92;;;;;;;1.59;99.91;102934.63;5000924;28;20025;-52
2022/03/21 00:23:11;;;;;;;93.25;45.20;;;;;;;1.47;99.49;102928.84;4992673;28;20034;-47
2022/03/21 00:25:37;;;;;;;95.18;46.17;;;;;;;1.39;100.00;102924.75;4991844;28;20033;-49
2022/03/21 00:28:03;;;;;;;94.57;44.83;;;;;;;1.35;100.00;102939.78;4992263;28;20546;-51
2022/03/21 00:30:29;;;;;;;96.78;45.75;;;;;;;1.33;100.00;102930.22;4999263;28;20036;-51
2022/03/21 00:32:55;;;;;;;90.13;45.28;;;;;;;1.31;100.00;102935.53;4994135;28;20052;-51
2022/03/21 00:35:21;;;;;;;90.70;45.65;;;;;;;1.34;100.00;102935.44;4992900;28;20076;-52
2022/03/21 00:37:47;;;;;;;96.68;46.78;;;;;;;1.37;100.00;102934.47;4995243;28;20049;-49
2022/03/21 00:40:14;;;;;;;99.35;46.03;;;;;;;1.40;100.00;102937.84;4999722;28;20338;-50
2022/03/21 00:42:41;;;;;;;97.95;47.33;;;;;;;1.40;100.00;102932.59;5003040;28;20034;-48
2022/03/21 00:45:10;;;;;;;104.43;48.03;;;;;;;1.39;100.00;102941.41;5001117;28;20021;-52
2022/03/21 00:47:36;;;;;;;98.78;45.83;;;;;;;1.37;100.00;102937.94;5015977;28;20300;-50
2022/03/21 00:50:03;;;;;;;103.90;48.85;;;;;;;1.36;100.00;102946.78;5017044;28;20033;-47
2022/03/21 00:52:30;;;;;;;98.32;47.80;;;;;;;1.35;100.00;102939.78;5016096;28;20345;-51
2022/03/21 00:54:56;;;;;;;101.68;47.25;;;;;;;1.36;100.00;102948.53;5016823;28;20088;-51
2022/03/21 00:57:21;;;;;;;97.95;46.33;;;;;;;1.37;100.00;102942.38;4996539;28;20026;-50
2022/03/21 00:59:46;;;;;;;95.40;46.13;;;;;;;1.40;100.00;102943.13;4997133;28;20032;-52
2022/03/21 01:02:12;;;;;;;99.78;46.85;;;;;;;1.39;100.00;102941.41;5016107;28;20072;-50
2022/03/21 01:04:38;;;;;;;98.00;46.08;;;;;;;1.39;100.00;102944.06;5015970;28;20021;-50
2022/03/21 01:07:03;;;;;;;99.82;46.78;;;;;;;1.36;100.00;102938.00;5014740;28;20056;-49
2022/03/21 01:09:29;;;;;;;99.97;46.30;;;;;;;1.34;100.00;102942.44;5011991;28;20096;-50
2022/03/21 01:11:54;;;;;;;93.47;45.33;;;;;;;1.33;100.00;102941.59;5002069;28;20021;-51
2022/03/21 01:14:19;;;;;;;92.07;44.22;;;;;;;1.35;100.00;102944.19;5016041;28;20312;-50
2022/03/21 01:16:46;;;;;;;95.82;46.25;;;;;;;1.37;100.00;102948.47;5016436;28;20123;-50
2022/03/21 01:19:12;;;;;;;101.30;46.67;;;;;;;1.35;100.00;102947.66;5015463;28;20033;-52
2022/03/21 01:21:37;;;;;;;96.97;47.08;;;;;;;1.28;100.00;102951.41;5016049;28;20036;-50
2022/03/21 01:24:02;;;;;;;98.50;47.05;;;;;;;1.27;100.00;102952.31;5013768;28;20602;-51
2022/03/21 01:26:28;;;;;;;105.75;46.17;;;;;;;1.23;100.00;102956.81;5014151;28;20029;-51
2022/03/21 01:28:53;;;;;;;101.95;46.78;;;;;;;1.22;100.00;102957.75;5016461;28;20185;-50
2022/03/21 01:31:18;;;;;;;102.43;48.15;;;;;;;1.20;100.00;102954.28;5015753;28;20040;-49
2022/03/21 01:33:43;;;;;;;96.43;46.22;;;;;;;1.18;100.00;102957.88;5016295;28;20025;-51
2022/03/21 01:36:09;;;;;;;95.25;45.25;;;;;;;1.09;100.00;102959.88;5015808;28;20134;-50
2022/03/21 01:38:35;;;;;;;96.28;46.67;;;;;;;1.00;100.00;102954.03;5014815;28;20172;-48
2022/03/21 01:41:00;;;;;;;99.22;46.70;;;;;;;0.96;100.00;102966.44;5013265;28;20493;-49
2022/03/21 01:43:26;;;;;;;94.68;45.88;;;;;;;0.90;100.00;102966.59;5016275;28;20083;-51
2022/03/21 01:45:51;;;;;;;90.40;44.50;;;;;;;0.85;100.00;102957.97;5015765;28;20459;-52
2022/03/21 01:48:17;;;;;;;93.15;45.72;;;;;;;0.82;100.00;102968.63;5015437;28;20408;-50
2022/03/21 01:50:43;;;;;;;98.10;44.58;;;;;;;0.78;100.00;102965.22;5015297;28;20029;-51
2022/03/21 01:55:56;;;;;;;94.78;45.58;;;;;;;0.69;100.00;102961.06;5001759;28;20131;-50
2022/03/21 01:58:24;;;;;;;90.47;45.13;;;;;;;0.72;100.00;102976.75;5000116;28;20050;-49
2022/03/21 02:00:51;;;;;;;99.82;46.42;;;;;;;0.73;100.00;102972.34;5001239;28;20341;-48
2022/03/21 02:03:18;;;;;;;99.80;46.72;;;;;;;0.74;100.00;102966.19;5013986;28;20460;-50
2022/03/21 02:05:47;;;;;;;105.63;46.40;;;;;;;0.74;100.00;102967.06;5016134;28;20345;-51
2022/03/21 02:08:12;;;;;;;96.93;45.72;;;;;;;0.72;100.00;102966.25;5013291;28;20495;-49
2022/03/21 02:10:38;;;;;;;95.63;45.08;;;;;;;0.69;100.00;102962.84;5012784;28;20108;-47
2022/03/21 02:13:05;;;;;;;96.13;44.40;;;;;;;0.64;100.00;102956.84;5014942;28;20407;-51
2022/03/21 02:15:31;;;;;;;95.97;44.28;;;;;;;0.55;100.00;102958.84;5014161;28;20478;-52
2022/03/21 02:18:00;;;;;;;94.80;43.72;;;;;;;0.48;100.00;102961.72;5015195;28;20117;-49
2022/03/21 02:20:27;;;;;;;93.32;43.90;;;;;;;0.43;100.00;102960.97;5014963;28;20539;-48
2022/03/21 02:23:09;;;;;;;90.60;42.20;;;;;;;0.36;100.00;102955.88;5015019;28;20068;-49
2022/03/21 02:25:39;;;;;;;94.38;43.00;;;;;;;0.36;100.00;102966.38;5001833;28;20118;-48
2022/03/21 02:28:07;;;;;;;97.55;43.78;;;;;;;0.32;100.00;102966.50;5010408;28;20017;-49
2022/03/21 02:30:34;;;;;;;91.10;42.97;;;;;;;0.36;100.00;102957.66;5012787;28;20029;-50
2022/03/21 02:33:01;;;;;;;89.40;42.28;;;;;;;0.35;100.00;102967.28;5014776;28;20051;-51
2022/03/21 02:35:28;;;;;;;93.97;44.45;;;;;;;0.27;100.00;102955.25;5014599;28;20495;-49
2022/03/21 02:37:55;;;;;;;93.22;43.03;;;;;;;0.29;100.00;102963.97;5030194;28;20025;-48
2022/03/21 02:40:21;;;;;;;92.82;43.00;;;;;;;0.25;100.00;102959.72;5012721;28;20059;-47
2022/03/21 02:42:47;;;;;;;97.75;43.85;;;;;;;0.21;100.00;102958.94;5014209;28;20034;-47
2022/03/21 02:45:12;;;;;;;96.38;44.40;;;;;;;0.22;100.00;102963.28;5028699;28;20218;-49
2022/03/21 02:47:37;;;;;;;94.38;43.95;;;;;;;0.23;100.00;102962.38;5014128;28;20086;-48
2022/03/21 02:50:03;;;;;;;105.38;46.72;;;;;;;0.23;100.00;102965.00;5014216;28;20029;-51
2022/03/21 02:52:30;;;;;;;106.05;46.40;;;;;;;0.24;100.00;102963.22;5013311;28;20047;-51
2022/03/21 02:54:56;;;;;;;99.45;47.00;;;;;;;0.23;100.00;102969.41;5013197;28;20022;-51
2022/03/21 02:57:21;;;;;;;104.13;47.25;;;;;;;0.23;100.00;102962.38;5013549;28;20176;-48
2022/03/21 02:59:47;;;;;;;100.72;47.08;;;;;;;0.23;100.00;102961.53;5013685;28;20437;-51
2022/03/21 03:02:12;;;;;;;100.03;46.78;;;;;;;0.17;100.00;102959.91;5000761;28;20034;-50
2022/03/21 03:04:37;;;;;;;98.75;45.28;;;;;;;0.18;100.00;102967.75;4994501;28;20101;-50
2022/03/21 03:07:03;;;;;;;99.05;46.47;;;;;;;0.17;100.00;102962.53;5009037;28;20740;-51
2022/03/21 03:09:28;;;;;;;103.15;46.30;;;;;;;0.16;100.00;102959.03;5011436;28;20036;-48
2022/03/21 03:11:54;;;;;;;103.28;45.03;;;;;;;0.18;100.00;102959.84;5012085;28;20254;-48
2022/03/21 03:14:19;;;;;;;97.25;44.17;;;;;;;0.17;100.00;102962.53;5013155;28;20109;-48
2022/03/21 03:16:44;;;;;;;101.15;45.55;;;;;;;0.12;100.00;102960.03;5013623;28;20048;-52
2022/03/21 03:19:10;;;;;;;103.72;47.25;;;;;;;0.13;100.00;102958.28;5013550;28;20025;-48
2022/03/21 03:21:42;;;;;;;94.65;44.78;;;;;;;0.09;100.00;102954.88;5013504;28;20215;-50
2022/03/21 03:24:11;;;;;;;95.05;45.05;;;;;;;0.08;100.00;102958.38;5010822;28;20021;-51
2022/03/21 03:26:37;;;;;;;95.22;44.55;;;;;;;0.06;100.00;102959.34;5011802;28;20037;-50
2022/03/21 03:29:02;;;;;;;96.50;43.63;;;;;;;0.06;100.00;102967.22;5012960;28;20557;-48
2022/03/21 03:31:29;;;;;;;96.18;44.08;;;;;;;0.10;100.00;102964.50;5012325;28;20037;-49
2022/03/21 03:33:54;;;;;;;96.82;43.72;;;;;;;0.08;100.00;102962.78;5025458;28;20037;-47
2022/03/21 03:36:20;;;;;;;106.53;45.33;;;;;;;0.09;100.00;102973.25;5012465;28;20049;-54
2022/03/21 03:38:47;;;;;;;97.65;44.90;;;;;;;0.06;100.00;102961.97;5012247;28;20512;-53
2022/03/21 03:41:13;;;;;;;98.13;45.25;;;;;;;0.03;100.00;102968.16;5012666;28;20035;-54
2022/03/21 03:43:38;;;;;;;102.57;44.95;;;;;;;0.03;100.00;102969.94;4995869;28;20030;-52
2022/03/21 03:46:04;;;;;;;99.63;45.50;;;;;;;0.02;100.00;102966.44;5010202;28;20091;-54
2022/03/21 03:48:30;;;;;;;93.82;44.47;;;;;;;0.01;100.00;102977.84;5013585;28;20083;-52
2022/03/21 03:50:56;;;;;;;96.80;44.78;;;;;;;-0.01;100.00;102969.16;5012966;28;20087;-53
2022/03/21 03:53:22;;;;;;;97.00;43.90;;;;;;;-0.01;100.00;102963.91;5011784;28;20444;-52
2022/03/21 03:55:47;;;;;;;99.53;44.17;;;;;;;-0.03;100.00;102977.06;5011707;28;20065;-55
2022/03/21 03:58:13;;;;;;;91.43;42.58;;;;;;;-0.04;100.00;102977.09;5011639;28;20449;-54
2022/03/21 04:00:38;;;;;;;94.75;44.78;;;;;;;-0.06;100.00;102969.25;5005122;28;20022;-54
2022/03/21 04:05:49;;;;;;;95.63;44.20;;;;;;;-0.09;100.00;102974.59;5013176;28;20048;-54
2022/03/21 04:08:14;;;;;;;98.75;44.50;;;;;;;-0.09;100.00;102984.25;5010580;28;20032;-51
2022/03/21 04:10:40;;;;;;;101.20;44.67;;;;;;;-0.12;100.00;102985.19;5011084;28;20427;-54
2022/03/21 04:13:05;;;;;;;90.35;43.17;;;;;;;-0.14;100.00;102980.88;5013229;28;20029;-52
2022/03/21 04:15:30;;;;;;;96.22;45.35;;;;;;;-0.13;100.00;102980.84;5012346;28;20024;-53
2022/03/21 04:18:04;;;;;;;101.80;45.35;;;;;;;-0.13;100.00;102980.84;5016075;28;20033;-52
2022/03/21 04:20:31;;;;;;;98.65;44.22;;;;;;;-0.14;100.00;102973.84;5015226;28;20111;-52
2022/03/21 04:22:57;;;;;;;98.20;45.90;;;;;;;-0.16;100.00;102980.91;5016411;28;20542;-54
2022/03/21 04:25:22;;;;;;;106.82;45.88;;;;;;;-0.20;100.00;102966.13;5014800;28;20033;-53
2022/03/21 04:27:47;;;;;;;102.60;45.50;;;;;;;-0.18;100.00;102979.22;5015198;28;20414;-54
2022/03/21 04:30:12;;;;;;;100.72;45.88;;;;;;;-0.24;100.00;102974.97;5016003;28;20407;-53
2022/03/21 04:32:38;;;;;;;103.28;46.47;;;;;;;-0.22;100.00;102981.03;5016693;28;20029;-53
2022/03/21 04:35:04;;;;;;;100.35;45.78;;;;;;;-0.21;100.00;102973.13;5017041;28;20484;-54
2022/03/21 04:37:29;;;;;;;100.43;45.53;;;;;;;-0.22;100.00;102978.41;5015898;28;20037;-53
2022/03/21 04:39:55;;;;;;;100.55;45.88;;;;;;;-0.25;100.00;102981.16;5015082;28;20280;-51
2022/03/21 04:42:22;;;;;;;97.63;45.75;;;;;;;-0.26;100.00;102971.53;5009223;28;20036;-52
2022/03/21 04:44:48;;;;;;;99.68;43.08;;;;;;;-0.30;100.00;102981.25;4996873;28;20120;-53
2022/03/21 04:47:14;;;;;;;101.15;45.00;;;;;;;-0.33;100.00;102978.69;5014798;28;20033;-50
2022/03/21 04:49:39;;;;;;;100.88;45.03;;;;;;;-0.37;100.00;102977.06;5016322;28;20161;-53
2022/03/21 04:52:06;;;;;;;96.28;43.45;;;;;;;-0.39;100.00;102971.84;5015715;28;20539;-52
2022/03/21 04:54:32;;;;;;;96.05;43.72;;;;;;;-0.41;100.00;102978.00;5013975;28;20112;-50
2022/03/21 04:56:57;;;;;;;97.30;45.17;;;;;;;-0.42;100.00;102982.41;5015995;28;20127;-51
2022/03/21 04:59:22;;;;;;;94.45;43.53;;;;;;;-0.42;100.00;102984.19;5017012;28;20459;-50
2022/03/21 05:01:48;;;;;;;102.22;44.20;;;;;;;-0.44;100.00;102991.22;5016204;28;20033;-49
2022/03/21 05:04:13;;;;;;;99.25;45.65;;;;;;;-0.45;100.00;102995.59;5015811;28;20360;-48
2022/03/21 05:06:39;;;;;;;97.80;44.22;;;;;;;-0.46;100.00;102990.38;5015299;28;20044;-51
2022/03/21 05:09:05;;;;;;;107.00;44.05;;;;;;;-0.48;100.00;102990.44;5014929;28;20045;-47
2022/03/21 05:11:30;;;;;;;90.72;42.25;;;;;;;-0.45;100.00;102997.38;5014261;28;20029;-50
2022/03/21 05:13:56;;;;;;;103.05;44.45;;;;;;;-0.43;100.00;102995.56;5016339;28;20080;-49
2022/03/21 05:16:22;;;;;;;99.53;42.95;;;;;;;-0.43;100.00;102999.06;5016037;28;20040;-48
2022/03/21 05:18:48;;;;;;;99.53;43.78;;;;;;;-0.41;100.00;103002.53;5016464;28;20112;-49
2022/03/21 05:21:14;;;;;;;97.55;43.60;;;;;;;-0.42;100.00;102998.16;5015785;28;20029;-52
2022/03/21 05:31:51;;;;;;;98.18;42.53;;;;;;;-0.48;100.00;103000.06;5013134;28;20391;-49
2022/03/21 05:37:07;;;;;;;94.10;42.63;;;;;;;-0.47;100.00;103004.44;4993649;28;20049;-52
2022/03/21 05:39:33;;;;;;;91.15;42.63;;;;;;;-0.50;100.00;103009.75;5013819;28;20037;-51
2022/03/21 05:41:59;;;;;;;91.00;41.63;;;;;;;-0.52;100.00;103001.91;5002448;28;20124;-52
2022/03/21 05:44:24;;;;;;;102.78;45.15;;;;;;;-0.50;100.00;103005.34;5015412;28;20052;-50
2022/03/21 05:46:50;;;;;;;101.18;44.08;;;;;;;-0.51;100.00;103006.28;5015796;28;20087;-52
2022/03/21 05:49:15;;;;;;;100.00;44.72;;;;;;;-0.50;100.00;103007.13;5015473;28;20348;-51
2022/03/21 05:51:41;;;;;;;98.38;43.70;;;;;;;-0.51;100.00;103006.28;5016292;28;20423;-50
2022/03/21 05:54:08;;;;;;;100.00;43.83;;;;;;;-0.49;100.00;103011.47;5014152;28;20100;-47
2022/03/21 05:56:35;;;;;;;106.30;43.53;;;;;;;-0.47;100.00;103012.31;5013832;28;20048;-51
2022/03/21 06:00:20;;;;;;;95.35;42.72;;;;;;;-0.48;100.00;103007.94;5014840;28;20261;-48
2022/03/21 06:01:47;;;;;;;98.53;43.10;;;;;;;-0.47;100.00;103015.78;5011657;28;20379;-46
2022/03/21 06:04:13;;;;;;;98.20;42.53;;;;;;;-0.45;100.00;103013.97;5015680;28;20033;-48
2022/03/21 06:06:38;;;;;;;106.18;43.88;;;;;;;-0.40;100.00;103016.50;5015314;28;20044;-47
2022/03/21 06:09:03;;;;;;;94.32;40.70;;;;;;;-0.35;100.00;103016.41;5014076;28;20475;-50
2022/03/21 06:11:29;;;;;;;91.40;42.20;;;;;;;-0.31;100.00;103021.53;5012915;28;20037;-48
2022/03/21 06:13:54;;;;;;;99.30;42.83;;;;;;;-0.27;100.00;103017.06;5011459;28;20197;-47
2022/03/21 06:16:20;;;;;;;100.57;43.28;;;;;;;-0.23;100.00;103011.69;5011463;28;20219;-51
2022/03/21 06:18:46;;;;;;;101.60;43.42;;;;;;;-0.17;100.00;103017.72;5015609;28;20034;-48
2022/03/21 06:21:11;;;;;;;94.43;43.85;;;;;;;-0.14;100.00;103022.88;5014427;28;20128;-49
2022/03/21 06:23:37;;;;;;;101.90;43.00;;;;;;;-0.07;100.00;103030.59;5028977;28;20357;-49
2022/03/21 06:26:03;;;;;;;100.05;42.83;;;;;;;-0.01;100.00;103034.81;5012722;28;20453;-51
2022/03/21 06:28:30;;;;;;;93.40;41.38;;;;;;;0.03;100.00;103031.19;5014966;28;20619;-48
2022/03/21 06:30:56;;;;;;;102.28;42.53;;;;;;;0.06;100.00;103028.50;5014467;28;20054;-48
2022/03/21 06:33:24;;;;;;;104.78;42.75;;;;;;;0.15;100.00;103040.53;5015509;28;20128;-47
2022/03/21 06:35:50;;;;;;;95.20;42.22;;;;;;;0.22;100.00;103046.50;5003160;28;20115;-48
2022/03/21 06:38:15;;;;;;;97.43;40.88;;;;;;;0.26;100.00;103041.13;5013262;28;20451;-50
2022/03/21 06:40:42;;;;;;;103.68;41.35;;;;;;;0.33;100.00;103045.31;5007895;28;20038;-49
2022/03/21 06:43:08;;;;;;;99.95;42.85;;;;;;;0.40;100.00;103051.28;5005441;28;20450;-47
2022/03/21 06:45:34;;;;;;;98.63;42.75;;;;;;;0.46;100.00;103053.75;5002823;28;20361;-49
2022/03/21 06:47:59;;;;;;;103.00;43.70;;;;;;;0.46;100.00;103052.88;5014850;28;20492;-48
2022/03/21 06:50:25;;;;;;;98.25;44.38;;;;;;;0.41;100.00;103052.13;5014250;28;20033;-49
2022/03/21 06:52:52;;;;;;;95.70;44.63;;;;;;;0.38;100.00;103058.34;5012657;28;20059;-51
2022/03/21 06:55:17;;;;;;;95.85;43.92;;;;;;;0.40;100.00;103061.78;5012997;28;21514;-47
2022/03/21 06:57:42;;;;;;;98.43;44.97;;;;;;;0.45;100.00;103072.19;5014622;28;20380;-50
2022/03/21 07:00:08;;;;;;;93.47;44.78;;;;;;;0.51;100.00;103065.00;5012313;28;20468;-50
2022/03/21 07:02:34;;;;;;;101.50;45.65;;;;;;;0.59;100.00;103062.16;5003757;28;20281;-47
2022/03/21 07:04:59;;;;;;;103.07;44.47;;;;;;;0.71;100.00;103071.47;5013582;28;20063;-50
2022/03/21 07:07:25;;;;;;;101.60;45.25;;;;;;;0.83;100.00;103065.03;5013735;28;20037;-50
2022/03/21 07:09:50;;;;;;;107.95;47.85;;;;;;;0.91;100.00;103068.31;5012976;28;20169;-51
2022/03/21 07:12:16;;;;;;;105.47;45.55;;;;;;;1.04;100.00;103071.47;5012821;28;20107;-50
2022/03/21 07:14:41;;;;;;;100.90;46.20;;;;;;;1.16;100.00;103071.09;5012998;28;20156;-50
2022/03/21 07:17:06;;;;;;;106.72;45.72;;;;;;;1.30;100.00;103070.69;5014334;28;20102;-49
2022/03/21 07:19:32;;;;;;;97.40;45.30;;;;;;;1.43;100.00;103073.81;5013008;28;20106;-47
2022/03/21 07:21:57;;;;;;;114.25;48.30;;;;;;;1.58;100.00;103078.63;5014031;28;20105;-48
2022/03/21 07:24:22;;;;;;;113.15;46.83;;;;;;;1.71;100.00;103073.81;5012215;28;20055;-51
2022/03/21 07:26:48;;;;;;;103.43;46.22;;;;;;;1.85;100.00;103083.91;5012572;28;20769;-47
2022/03/21 07:29:13;;;;;;;108.80;45.30;;;;;;;2.01;100.00;103077.22;5012689;28;20029;-51
2022/03/21 07:31:38;;;;;;;102.30;45.55;;;;;;;2.22;100.00;103072.16;5013665;28;20040;-51
2022/03/21 07:34:04;;;;;;;111.53;45.30;;;;;;;2.40;100.00;103079.44;5008621;28;20374;-49
2022/03/21 07:36:30;;;;;;;101.80;44.75;;;;;;;2.61;100.00;103076.97;5013251;28;20253;-48
2022/03/21 07:38:57;;;;;;;100.18;46.13;;;;;;;2.79;100.00;103068.41;5013101;28;20028;-52
2022/03/21 07:41:26;;;;;;;96.50;44.60;;;;;;;3.02;100.00;103079.91;5013448;28;20021;-51
2022/03/21 07:43:57;;;;;;;99.43;43.80;;;;;;;3.25;100.00;103078.19;5012906;28;20253;-48
2022/03/21 07:49:07;;;;;;;94.35;42.13;;;;;;;3.63;100.00;103079.34;5012200;28;20110;-47
2022/03/21 07:51:32;;;;;;;98.13;43.30;;;;;;;3.80;100.00;103083.97;5012376;28;20539;-50
2022/03/21 07:53:57;;;;;;;102.53;43.15;;;;;;;3.93;100.00;103073.75;4994761;28;20041;-48
2022/03/21 07:56:23;;;;;;;97.63;43.58;;;;;;;4.15;100.00;103084.28;5011720;28;20108;-51
2022/03/21 07:58:48;;;;;;;96.43;41.08;;;;;;;4.35;100.00;103088.75;5012885;28;20029;-52
2022/03/21 08:01:14;;;;;;;94.88;39.55;;;;;;;4.54;100.00;103086.16;5013662;28;20120;-51
2022/03/21 08:03:39;;;;;;;90.15;40.75;;;;;;;4.72;100.00;103084.50;5012684;28;20498;-48
2022/03/21 08:06:08;;;;;;;99.55;40.55;;;;;;;4.89;100.00;103086.41;5012058;28;20124;-51
2022/03/21 08:08:34;;;;;;;128.77;50.35;;;;;;;5.12;100.00;103093.31;5010806;28;20141;-54
2022/03/21 08:10:59;;;;;;;88.65;38.53;;;;;;;5.33;100.00;103099.41;5011641;28;20100;-54
2022/03/21 08:13:26;;;;;;;99.30;42.55;;;;;;;5.50;100.00;103095.09;5012966;28;20115;-55
2022/03/21 08:15:51;;;;;;;74.75;33.08;;;;;;;5.67;100.00;103097.84;5012257;28;20041;-54
2022/03/21 08:18:17;;;;;;;78.90;34.38;;;;;;;5.88;100.00;103101.22;5012909;28;20047;-53
2022/03/21 08:20:43;;;;;;;67.43;33.38;;;;;;;6.07;100.00;103105.66;5012848;28;20498;-55
2022/03/21 08:23:13;;;;;;;67.68;31.67;;;;;;;6.29;100.00;103106.28;5011502;28;20121;-54
2022/03/21 08:25:41;;;;;;;61.75;29.60;;;;;;;6.48;100.00;103097.41;5010686;28;20298;-54
2022/03/21 08:28:08;;;;;;;67.10;28.38;;;;;;;6.67;100.00;103106.16;5012709;28;20025;-54
2022/03/21 08:30:35;;;;;;;62.30;28.48;;;;;;;6.89;100.00;103105.88;5012029;28;20043;-50
2022/03/21 08:33:02;;;;;;;51.30;26.05;;;;;;;7.08;100.00;103104.91;4999050;28;20018;-51
2022/03/21 08:35:30;;;;;;;53.75;24.75;;;;;;;7.25;100.00;103106.66;4994333;28;20041;-50
2022/03/21 08:37:55;;;;;;;49.45;24.23;;;;;;;7.42;100.00;103101.25;4999403;28;20507;-51
2022/03/21 08:40:20;;;;;;;54.80;24.92;;;;;;;7.57;100.00;103106.66;5011826;28;20061;-46
2022/03/21 08:42:47;;;;;;;58.35;25.75;;;;;;;7.76;100.00;103101.19;5028221;28;20044;-51
2022/03/21 08:45:13;;;;;;;58.35;23.70;;;;;;;7.92;100.00;103094.00;5012332;28;20053;-49
2022/03/21 08:47:39;;;;;;;48.65;23.80;;;;;;;8.08;100.00;103099.34;5011383;28;20083;-50
2022/03/21 08:50:05;;;;;;;51.47;24.52;;;;;;;8.26;99.45;103100.03;5012359;28;20029;-52
2022/03/21 08:52:31;;;;;;;46.53;22.65;;;;;;;8.40;97.35;103099.22;5010175;28;20061;-52
2022/03/21 08:54:56;;;;;;;47.42;22.38;;;;;;;8.57;97.97;103104.44;5011839;28;20061;-55
2022/03/21 08:57:22;;;;;;;50.35;22.48;;;;;;;8.71;97.36;103102.75;5012859;28;20101;-54
2022/03/21 08:59:47;;;;;;;46.33;21.88;;;;;;;8.89;93.68;103098.97;5012551;28;20022;-55
2022/03/21 09:02:14;;;;;;;43.92;22.02;;;;;;;9.01;94.65;103096.47;5012357;28;20029;-54
2022/03/21 09:04:39;;;;;;;42.10;21.02;;;;;;;9.12;93.92;103094.00;5016148;28;20029;-49
2022/03/21 09:07:05;;;;;;;44.03;22.83;;;;;;;9.23;92.37;103096.88;5015687;28;20032;-47
2022/03/21 09:09:31;;;;;;;48.65;22.85;;;;;;;9.39;92.74;103094.06;5011100;28;20604;-49
2022/03/21 09:11:57;;;;;;;55.38;25.33;;;;;;;9.54;91.58;103092.25;5009108;28;20033;-50
2022/03/21 09:14:22;;;;;;;65.60;27.80;;;;;;;9.73;89.09;103099.06;5016088;28;20022;-51
2022/03/21 09:16:50;;;;;;;43.70;20.55;;;;;;;9.86;87.75;103099.94;5006946;28;20040;-51
2022/03/21 09:19:15;;;;;;;48.20;23.20;;;;;;;9.98;87.04;103103.63;5009693;28;20048;-50
2022/03/21 09:21:41;;;;;;;46.33;21.08;;;;;;;10.13;85.95;103099.06;5011160;28;20421;-48
2022/03/21 09:24:06;;;;;;;46.70;22.00;;;;;;;10.28;85.77;103095.38;5012118;28;20025;-51
2022/03/21 09:26:31;;;;;;;45.95;21.15;;;;;;;10.44;84.48;103090.75;5012696;28;20236;-53
2022/03/21 09:29:03;;;;;;;40.10;19.10;;;;;;;10.53;81.17;103089.25;5000222;28;20025;-51
2022/03/21 09:31:29;;;;;;;45.60;20.92;;;;;;;10.71;80.87;103096.94;5029622;28;20472;-49
2022/03/21 09:33:55;;;;;;;40.50;19.52;;;;;;;10.83;80.69;103086.25;5012802;28;20215;-51
2022/03/21 09:36:20;;;;;;;41.42;20.55;;;;;;;10.98;79.71;103086.13;4998290;28;20054;-47
2022/03/21 09:38:46;;;;;;;43.75;20.85;;;;;;;11.11;80.56;103086.13;4998226;28;20022;-50
2022/03/21 09:41:13;;;;;;;41.33;20.92;;;;;;;11.23;76.45;103089.75;5009138;28;20220;-55
2022/03/21 09:43:40;;;;;;;43.38;21.30;;;;;;;11.31;79.69;103080.19;5010043;28;20260;-55
2022/03/21 09:46:07;;;;;;;38.92;21.02;;;;;;;11.45;78.05;103089.06;5014945;28;20025;-54
2022/03/21 09:48:33;;;;;;;46.03;21.75;;;;;;;11.59;78.63;103083.53;5015324;28;20084;-54
2022/03/21 09:51:01;;;;;;;48.58;22.08;;;;;;;11.72;76.59;103075.47;5011855;28;20505;-52
2022/03/21 09:53:28;;;;;;;43.55;21.65;;;;;;;11.86;76.05;103071.75;5001846;28;20030;-54
2022/03/21 09:55:54;;;;;;;47.53;23.30;;;;;;;11.88;72.87;103070.69;5013510;28;20064;-56
2022/03/21 09:58:20;;;;;;;48.67;21.55;;;;;;;12.04;74.54;103077.59;5015164;28;20256;-55
2022/03/21 10:00:47;;;;;;;47.30;22.65;;;;;;;12.16;72.56;103082.00;5014218;28;20550;-55
2022/03/21 10:03:12;;;;;;;43.08;21.38;;;;;;;12.25;71.59;103078.66;5016841;28;20346;-56
2022/03/21 10:05:41;;;;;;;41.50;21.70;;;;;;;12.39;72.24;103074.03;5013520;28;20036;-55
2022/03/21 10:08:20;;;;;;;45.63;20.17;;;;;;;12.51;70.15;103075.78;5011638;28;20117;-55
2022/03/21 10:10:51;;;;;;;47.50;22.38;;;;;;;12.52;69.23;103071.28;5011054;28;20025;-54
2022/03/21 10:13:17;;;;;;;43.15;22.08;;;;;;;12.58;70.91;103076.16;5014134;28;20551;-55
2022/03/21 10:15:43;;;;;;;43.30;22.75;;;;;;;12.74;70.58;103073.13;5010478;28;20049;-56
2022/03/21 10:18:09;;;;;;;48.72;22.27;;;;;;;12.85;70.00;103062.41;5038129;28;20133;-55
2022/03/21 10:20:36;;;;;;;47.92;23.02;;;;;;;13.02;69.84;103066.44;5011122;28;20026;-55
2022/03/21 10:23:19;;;;;;;44.97;24.75;;;;;;;13.18;71.09;103061.53;5001491;28;20043;-55
2022/03/21 10:25:46;;;;;;;48.33;21.42;;;;;;;13.40;67.58;103065.19;5012874;28;20165;-55
2022/03/21 10:28:35;;;;;;;46.50;25.50;;;;;;;13.57;68.74;103070.03;5010052;28;20030;-55
2022/03/21 10:31:02;;;;;;;41.33;21.27;;;;;;;13.63;64.21;103066.00;4993231;28;20464;-55
2022/03/21 10:33:28;;;;;;;51.05;20.70;;;;;;;13.61;63.92;103065.25;4993586;28;20394;-54
2022/03/21 10:35:53;;;;;;;46.47;23.05;;;;;;;13.77;65.75;103067.53;4994563;28;20196;-54
2022/03/21 10:38:32;;;;;;;44.67;22.80;;;;;;;13.87;66.61;103057.72;4993120;28;20030;-55
2022/03/21 10:41:05;;;;;;;36.15;19.75;;;;;;;14.04;63.73;103061.69;4994291;28;20149;-55
2022/03/21 10:43:30;;;;;;;43.50;19.67;;;;;;;14.11;61.48;103060.19;5005173;28;20052;-55
2022/03/21 10:45:56;;;;;;;40.58;19.23;;;;;;;14.31;61.65;103052.25;5014739;28;20486;-55
2022/03/21 10:48:31;;;;;;;43.00;18.88;;;;;;;14.49;61.52;103058.75;5009683;28;20033;-55
2022/03/21 10:50:59;;;;;;;39.33;18.83;;;;;;;14.63;60.14;103054.88;5025455;28;20444;-54
2022/03/21 10:53:37;;;;;;;38.83;19.65;;;;;;;14.76;61.29;103053.81;5013158;28;20033;-55
2022/03/21 10:56:08;;;;;;;37.53;20.02;;;;;;;14.86;60.36;103057.38;5027986;28;20087;-54
2022/03/21 10:58:42;;;;;;;44.50;21.35;;;;;;;14.99;60.38;103052.63;5001869;28;20540;-55
2022/03/21 11:01:19;;;;;;;40.55;19.88;;;;;;;15.06;55.74;103050.25;5011402;28;20116;-54
2022/03/21 11:03:51;;;;;;;42.03;19.73;;;;;;;14.94;55.59;103049.50;4998462;28;20034;-55
2022/03/21 11:06:18;;;;;;;42.47;20.02;;;;;;;14.94;56.78;103056.72;5000435;28;20472;-54
2022/03/21 11:08:47;;;;;;;38.25;19.40;;;;;;;15.06;57.23;103044.88;5012681;28;20398;-54
2022/03/21 11:11:13;;;;;;;40.88;19.40;;;;;;;15.24;58.12;103037.84;5011153;28;20087;-54
2022/03/21 11:13:39;;;;;;;40.58;20.90;;;;;;;15.45;56.97;103039.56;5013700;28;20033;-54
2022/03/21 11:16:05;;;;;;;43.40;22.23;;;;;;;15.59;55.73;103038.31;5014038;28;20326;-54
2022/03/21 11:18:30;;;;;;;39.55;21.45;;;;;;;15.75;54.85;103038.66;5012893;28;20045;-55
2022/03/21 11:20:57;;;;;;;34.88;19.13;;;;;;;15.92;53.72;103042.47;5014074;28;20048;-55
2022/03/21 11:23:25;;;;;;;36.97;19.73;;;;;;;15.84;52.63;103045.03;5013178;28;20030;-55